createdAt,value
2022-09-01T00:00:01.344Z,15.35
2022-09-01T00:02:32.394Z,15.38
2022-09-01T00:04:59.704Z,15.34
2022-09-01T00:07:30.276Z,15.37
2022-09-01T00:09:58.814Z,15.36
2022-09-01T00:12:26.074Z,15.32
2022-09-01T00:14:53.506Z,15.23
2022-09-01T00:17:20.541Z,15.31
2022-09-01T00:19:47.385Z,15.31
2022-09-01T00:22:14.152Z,15.23
2022-09-01T00:24:40.944Z,15.24
2022-09-01T00:27:07.795Z,15.32
2022-09-01T00:29:36.187Z,15.23
2022-09-01T00:32:03.332Z,15.18
2022-09-01T00:34:30.115Z,15.15
2022-09-01T00:36:57.171Z,15.15
2022-09-01T00:39:23.970Z,15.21
2022-09-01T00:41:51.374Z,15.20
2022-09-01T00:44:26.862Z,15.19
2022-09-01T00:46:57.317Z,15.11
2022-09-01T00:49:35.073Z,15.12
2022-09-01T00:52:08.242Z,15.14
2022-09-01T00:54:43.804Z,15.12
2022-09-01T00:57:12.857Z,15.14
2022-09-01T00:59:46.912Z,15.05
2022-09-01T01:02:14.597Z,15.04
2022-09-01T01:04:43.725Z,14.97
2022-09-01T01:07:12.218Z,14.97
2022-09-01T01:09:42.875Z,14.97
2022-09-01T01:12:13.993Z,15.11
2022-09-01T01:14:41.783Z,15.16
2022-09-01T01:17:12.824Z,15.13
2022-09-01T01:20:01.200Z,15.14
2022-09-01T01:23:03.205Z,15.17
2022-09-01T01:25:35.027Z,15.29
2022-09-01T01:28:18.686Z,15.32
2022-09-01T01:30:56.929Z,15.28
2022-09-01T01:33:29.875Z,15.25
2022-09-01T01:35:57.662Z,15.23
2022-09-01T01:38:27.538Z,15.19
2022-09-01T01:40:55.815Z,15.19
2022-09-01T01:43:26.433Z,15.15
2022-09-01T01:45:59.000Z,15.09
2022-09-01T01:48:34.492Z,15.13
2022-09-01T01:51:02.810Z,15.09
2022-09-01T01:53:30.373Z,15.17
2022-09-01T01:56:00.078Z,15.23
2022-09-01T01:58:33.499Z,15.26
2022-09-01T02:01:01.724Z,15.23
2022-09-01T02:03:36.362Z,15.26
2022-09-01T02:06:04.774Z,15.25
2022-09-01T02:08:36.073Z,15.17
2022-09-01T02:11:05.929Z,15.25
2022-09-01T02:13:32.875Z,15.25
2022-09-01T02:16:03.144Z,15.25
2022-09-01T02:18:38.702Z,15.25
2022-09-01T02:21:12.742Z,15.28
2022-09-01T02:23:42.126Z,15.24
2022-09-01T02:26:16.516Z,15.20
2022-09-01T02:28:50.941Z,15.16
2022-09-01T02:31:22.106Z,15.16
2022-09-01T02:33:49.006Z,15.12
2022-09-01T02:36:17.852Z,15.13
2022-09-01T02:38:46.835Z,15.17
2022-09-01T02:41:25.118Z,15.21
2022-09-01T02:43:52.511Z,15.24
2022-09-01T02:46:23.358Z,15.29
2022-09-01T02:48:52.576Z,15.31
2022-09-01T02:51:25.636Z,15.27
2022-09-01T02:53:53.374Z,15.29
2022-09-01T02:56:23.990Z,15.22
2022-09-01T02:58:54.111Z,15.13
2022-09-01T03:01:31.379Z,15.09
2022-09-01T03:04:02.830Z,15.08
2022-09-01T03:06:34.060Z,15.07
2022-09-01T03:09:02.757Z,15.09
2022-09-01T03:11:32.496Z,15.06
2022-09-01T03:13:59.817Z,15.01
2022-09-01T03:16:33.182Z,14.98
2022-09-01T03:19:03.260Z,15.03
2022-09-01T03:21:32.111Z,15.04
2022-09-01T03:24:18.899Z,15.01
2022-09-01T03:26:50.241Z,15.00
2022-09-01T03:29:19.110Z,14.93
2022-09-01T03:32:06.535Z,14.79
2022-09-01T03:34:36.880Z,14.66
2022-09-01T03:37:07.459Z,14.66
2022-09-01T03:39:34.425Z,14.58
2022-09-01T03:42:01.265Z,14.55
2022-09-01T03:44:28.208Z,14.45
2022-09-01T03:46:55.246Z,14.39
2022-09-01T03:49:27.745Z,14.34
2022-09-01T03:51:57.476Z,14.25
2022-09-01T03:54:30.569Z,14.16
2022-09-01T03:57:00.662Z,14.12
2022-09-01T03:59:30.344Z,14.09
2022-09-01T04:01:57.901Z,14.03
2022-09-01T04:04:25.779Z,13.96
2022-09-01T04:06:52.821Z,13.96
2022-09-01T04:09:20.962Z,14.00
2022-09-01T04:11:48.485Z,14.05
2022-09-01T04:14:16.529Z,14.04
2022-09-01T04:17:03.652Z,14.08
2022-09-01T04:19:36.894Z,14.06
2022-09-01T04:22:05.011Z,14.03
2022-09-01T04:24:45.823Z,13.98
2022-09-01T04:27:14.959Z,14.00
2022-09-01T04:29:42.601Z,13.96
2022-09-01T04:32:12.956Z,13.95
2022-09-01T04:34:42.851Z,14.07
2022-09-01T04:37:18.886Z,14.06
2022-09-01T04:39:55.797Z,14.01
2022-09-01T04:42:27.137Z,13.97
2022-09-01T04:44:57.435Z,13.96
2022-09-01T04:47:36.045Z,13.87
2022-09-01T04:50:14.192Z,13.78
2022-09-01T04:52:45.442Z,13.77
2022-09-01T04:55:24.790Z,13.82
2022-09-01T04:57:52.349Z,13.88
2022-09-01T05:00:24.262Z,13.93
2022-09-01T05:03:03.439Z,13.99
2022-09-01T05:05:47.645Z,14.06
2022-09-01T05:08:24.204Z,14.06
2022-09-01T05:10:56.700Z,14.01
2022-09-01T05:13:39.741Z,14.08
2022-09-01T05:16:15.857Z,14.27
2022-09-01T05:18:47.862Z,14.34
2022-09-01T05:21:22.219Z,14.42
2022-09-01T05:23:51.750Z,14.42
2022-09-01T05:26:23.454Z,14.43
2022-09-01T05:28:58.792Z,14.46
2022-09-01T05:31:29.149Z,14.49
2022-09-01T05:33:58.227Z,14.53
2022-09-01T05:36:25.745Z,14.59
2022-09-01T05:38:55.124Z,14.62
2022-09-01T05:41:23.872Z,14.64
2022-09-01T05:43:59.374Z,14.67
2022-09-01T05:46:28.451Z,14.65
2022-09-01T05:48:57.520Z,14.67
2022-09-01T05:51:43.856Z,14.64
2022-09-01T05:54:12.193Z,14.71
2022-09-01T05:56:44.612Z,14.98
2022-09-01T05:59:24.859Z,15.20
2022-09-01T06:01:57.957Z,15.44
2022-09-01T06:04:26.911Z,15.73
2022-09-01T06:07:06.520Z,16.12
2022-09-01T06:09:42.156Z,16.68
2022-09-01T06:12:18.500Z,17.07
2022-09-01T06:14:48.385Z,17.41
2022-09-01T06:17:24.916Z,17.33
2022-09-01T06:19:56.550Z,17.63
2022-09-01T06:22:25.708Z,17.76
2022-09-01T06:24:56.904Z,17.73
2022-09-01T06:27:25.052Z,17.99
2022-09-01T06:29:54.709Z,18.06
2022-09-01T06:32:25.800Z,17.59
2022-09-01T06:34:53.975Z,17.29
2022-09-01T06:37:22.490Z,17.13
2022-09-01T06:39:52.462Z,17.21
2022-09-01T06:42:19.992Z,17.50
2022-09-01T06:44:52.677Z,17.57
2022-09-01T06:47:20.063Z,17.16
2022-09-01T06:49:46.894Z,16.49
2022-09-01T06:52:20.814Z,16.05
2022-09-01T06:54:48.714Z,15.95
2022-09-01T07:00:18.734Z,16.03
2022-09-01T07:02:53.457Z,15.86
2022-09-01T07:06:06.452Z,15.83
2022-09-01T07:14:30.914Z,15.92
2022-09-01T07:17:23.314Z,15.98
2022-09-01T07:19:49.933Z,16.11
2022-09-01T07:25:12.822Z,16.33
2022-09-01T07:28:00.585Z,16.51
2022-09-01T07:30:29.097Z,16.70
2022-09-01T07:32:56.056Z,16.85
2022-09-01T07:35:25.076Z,17.01
2022-09-01T07:44:10.363Z,16.95
2022-09-01T07:52:31.506Z,18.74
2022-09-01T07:54:59.113Z,19.08
2022-09-01T07:57:26.538Z,18.25
2022-09-01T07:59:55.839Z,17.60
2022-09-01T08:02:40.046Z,17.60
2022-09-01T08:05:11.748Z,17.70
2022-09-01T08:07:55.876Z,17.81
2022-09-01T08:10:28.365Z,18.66
2022-09-01T08:12:56.939Z,18.98
2022-09-01T08:16:06.354Z,19.41
2022-09-01T08:18:14.574Z,19.38
2022-09-01T08:20:47.495Z,20.32
2022-09-01T08:23:34.966Z,21.86
2022-09-01T08:26:07.002Z,22.63
2022-09-01T08:28:34.590Z,22.60
2022-09-01T08:31:11.316Z,23.20
2022-09-01T08:33:40.270Z,23.44
2022-09-01T08:36:10.176Z,22.69
2022-09-01T08:38:37.537Z,22.10
2022-09-01T08:41:13.721Z,21.57
2022-09-01T08:44:11.405Z,22.08
2022-09-01T08:46:42.396Z,22.96
2022-09-01T08:49:30.830Z,23.73
2022-09-01T08:52:29.405Z,23.92
2022-09-01T08:55:25.974Z,24.26
2022-09-01T08:57:59.896Z,24.68
2022-09-01T09:00:33.371Z,24.88
2022-09-01T09:03:26.044Z,24.07
2022-09-01T09:05:52.723Z,23.83
2022-09-01T09:08:38.282Z,23.77
2022-09-01T09:11:09.154Z,23.80
2022-09-01T09:13:36.580Z,23.97
2022-09-01T09:16:17.803Z,23.59
2022-09-01T09:18:58.275Z,23.11
2022-09-01T09:21:33.903Z,23.55
2022-09-01T09:24:16.578Z,23.17
2022-09-01T09:26:51.954Z,23.75
2022-09-01T09:29:21.456Z,24.94
2022-09-01T09:32:04.227Z,23.54
2022-09-01T09:34:36.029Z,23.88
2022-09-01T09:37:23.271Z,23.77
2022-09-01T09:40:20.194Z,24.01
2022-09-01T09:42:55.926Z,23.73
2022-09-01T09:45:42.204Z,22.81
2022-09-01T09:48:29.270Z,23.74
2022-09-01T09:50:56.138Z,23.32
2022-09-01T09:53:29.541Z,23.76
2022-09-01T09:56:05.498Z,24.26
2022-09-01T09:58:41.507Z,24.41
2022-09-01T10:01:15.360Z,25.56
2022-09-01T10:03:52.130Z,25.59
2022-09-01T10:06:36.118Z,26.68
2022-09-01T10:09:06.930Z,26.77
2022-09-01T10:11:40.899Z,26.82
2022-09-01T10:14:35.871Z,26.70
2022-09-01T10:17:43.860Z,27.52
2022-09-01T10:20:11.644Z,28.19
2022-09-01T10:22:39.914Z,26.25
2022-09-01T10:25:11.154Z,25.62
2022-09-01T10:27:42.420Z,26.50
2022-09-01T10:30:18.464Z,26.56
2022-09-01T10:32:55.304Z,27.09
2022-09-01T10:35:38.966Z,26.14
2022-09-01T10:38:12.064Z,26.29
2022-09-01T10:40:50.671Z,27.36
2022-09-01T10:43:27.309Z,27.89
2022-09-01T10:45:58.939Z,27.09
2022-09-01T10:48:45.775Z,26.50
2022-09-01T10:51:18.941Z,26.72
2022-09-01T10:53:48.606Z,28.04
2022-09-01T10:56:28.079Z,28.65
2022-09-01T11:01:53.501Z,27.76
2022-09-01T11:04:43.369Z,27.80
2022-09-01T11:07:29.743Z,26.59
2022-09-01T11:10:41.981Z,28.21
2022-09-01T11:13:30.500Z,30.04
2022-09-01T11:19:44.461Z,26.48
2022-09-01T11:22:18.818Z,27.28
2022-09-01T11:24:55.973Z,26.37
2022-09-01T11:27:48.917Z,25.81
2022-09-01T11:30:30.893Z,25.34
2022-09-01T11:33:03.837Z,27.15
2022-09-01T11:35:30.987Z,25.96
2022-09-01T11:38:03.392Z,26.88
2022-09-01T11:40:33.955Z,25.60
2022-09-01T11:43:14.367Z,23.72
2022-09-01T11:45:51.030Z,24.34
2022-09-01T11:48:18.248Z,25.60
2022-09-01T11:50:45.053Z,26.07
2022-09-01T11:53:22.273Z,27.82
2022-09-01T11:55:52.722Z,25.89
2022-09-01T11:58:33.680Z,27.81
2022-09-01T12:01:30.594Z,29.47
2022-09-01T12:03:58.946Z,25.59
2022-09-01T12:06:29.498Z,26.31
2022-09-01T12:08:59.338Z,27.75
2022-09-01T12:11:34.139Z,27.05
2022-09-01T12:14:08.895Z,28.05
2022-09-01T12:16:42.182Z,28.36
2022-09-01T12:19:23.893Z,29.62
2022-09-01T12:22:00.611Z,28.00
2022-09-01T12:24:31.445Z,28.67
2022-09-01T12:27:01.093Z,29.07
2022-09-01T12:29:32.139Z,29.42
2022-09-01T12:32:00.490Z,28.47
2022-09-01T12:34:33.056Z,28.45
2022-09-01T12:37:16.570Z,26.61
2022-09-01T12:39:49.057Z,27.58
2022-09-01T12:42:19.244Z,29.27
2022-09-01T12:44:51.514Z,30.32
2022-09-01T12:47:33.617Z,32.19
2022-09-01T12:50:13.028Z,32.13
2022-09-01T12:52:58.234Z,30.02
2022-09-01T12:58:25.816Z,28.74
2022-09-01T13:01:16.133Z,27.46
2022-09-01T13:04:22.368Z,28.32
2022-09-01T13:06:49.841Z,29.74
2022-09-01T13:09:16.696Z,29.48
2022-09-01T13:14:31.173Z,31.23
2022-09-01T13:16:58.286Z,29.94
2022-09-01T13:19:28.665Z,28.46
2022-09-01T13:21:57.386Z,28.90
2022-09-01T13:24:28.097Z,28.20
2022-09-01T13:29:45.028Z,26.42
2022-09-01T13:32:20.851Z,29.57
2022-09-01T13:34:50.491Z,31.10
2022-09-01T13:37:18.556Z,30.97
2022-09-01T13:39:47.090Z,32.41
2022-09-01T13:42:14.869Z,32.18
2022-09-01T13:44:44.157Z,32.65
2022-09-01T13:50:10.529Z,33.33
2022-09-01T13:52:40.389Z,31.46
2022-09-01T13:55:09.987Z,29.59
2022-09-01T13:57:37.051Z,29.35
2022-09-01T14:00:13.268Z,29.67
2022-09-01T14:02:49.034Z,28.88
2022-09-01T14:05:18.384Z,31.10
2022-09-01T14:07:45.633Z,29.56
2022-09-01T14:10:14.398Z,30.28
2022-09-01T14:12:42.752Z,32.24
2022-09-01T14:15:14.272Z,30.49
2022-09-01T14:17:42.822Z,30.97
2022-09-01T14:20:14.275Z,30.35
2022-09-01T14:22:41.183Z,28.69
2022-09-01T14:25:10.596Z,29.06
2022-09-01T14:27:38.344Z,29.03
2022-09-01T14:30:10.149Z,30.44
2022-09-01T14:32:37.139Z,29.36
2022-09-01T14:35:08.166Z,28.60
2022-09-01T14:37:38.313Z,28.09
2022-09-01T14:40:08.280Z,29.00
2022-09-01T14:42:37.080Z,29.15
2022-09-01T14:45:05.204Z,29.06
2022-09-01T14:47:32.034Z,28.94
2022-09-01T14:50:01.910Z,28.85
2022-09-01T14:52:29.043Z,27.83
2022-09-01T14:54:55.858Z,28.48
2022-09-01T14:57:36.598Z,29.31
2022-09-01T15:00:12.033Z,29.49
2022-09-01T15:02:41.274Z,28.48
2022-09-01T15:05:09.159Z,28.90
2022-09-01T15:07:36.833Z,29.26
2022-09-01T15:10:06.217Z,28.33
2022-09-01T15:12:33.220Z,28.51
2022-09-01T15:15:00.857Z,28.35
2022-09-01T15:17:29.200Z,29.73
2022-09-01T15:19:56.126Z,31.89
2022-09-01T15:22:22.866Z,31.02
2022-09-01T15:24:49.650Z,28.38
2022-09-01T15:27:16.778Z,28.91
2022-09-01T15:29:48.027Z,30.17
2022-09-01T15:32:27.666Z,30.44
2022-09-01T15:34:56.268Z,28.54
2022-09-01T15:37:23.165Z,28.93
2022-09-01T15:39:49.980Z,27.31
2022-09-01T15:42:17.254Z,28.26
2022-09-01T15:44:44.417Z,27.39
2022-09-01T15:47:11.200Z,25.42
2022-09-01T15:49:37.996Z,24.49
2022-09-01T15:52:04.835Z,23.80
2022-09-01T15:54:31.761Z,23.15
2022-09-01T15:56:58.568Z,22.79
2022-09-01T15:59:25.418Z,22.44
2022-09-01T16:01:54.036Z,22.27
2022-09-01T16:04:25.495Z,22.13
2022-09-01T16:06:56.558Z,22.25
2022-09-01T16:09:25.628Z,22.18
2022-09-01T16:11:54.268Z,22.04
2022-09-01T16:14:21.238Z,21.75
2022-09-01T16:16:51.945Z,21.53
2022-09-01T16:19:45.975Z,21.48
2022-09-01T16:22:30.838Z,21.55
2022-09-01T16:25:07.267Z,21.34
2022-09-01T16:27:39.919Z,21.21
2022-09-01T16:30:10.852Z,21.16
2022-09-01T16:32:44.082Z,21.15
2022-09-01T16:35:11.110Z,21.10
2022-09-01T16:37:48.524Z,20.93
2022-09-01T16:40:36.601Z,20.80
2022-09-01T16:43:16.336Z,20.74
2022-09-01T16:46:09.165Z,20.68
2022-09-01T16:49:08.993Z,20.51
2022-09-01T16:52:05.391Z,20.47
2022-09-01T16:54:35.145Z,20.29
2022-09-01T16:57:22.173Z,20.25
2022-09-01T16:59:59.613Z,20.24
2022-09-01T17:02:32.854Z,20.22
2022-09-01T17:05:40.981Z,20.18
2022-09-01T17:08:16.922Z,20.09
2022-09-01T17:10:43.771Z,20.06
2022-09-01T17:13:20.278Z,20.04
2022-09-01T17:16:04.037Z,19.94
2022-09-01T17:18:44.429Z,19.84
2022-09-01T17:21:18.033Z,19.79
2022-09-01T17:23:57.154Z,19.73
2022-09-01T17:26:27.325Z,19.57
2022-09-01T17:29:00.283Z,19.49
2022-09-01T17:32:05.819Z,19.23
2022-09-01T17:34:57.783Z,19.04
2022-09-01T17:38:00.373Z,19.08
2022-09-01T17:40:27.279Z,19.01
2022-09-01T17:43:26.258Z,18.99
2022-09-01T17:46:19.406Z,18.95
2022-09-01T17:49:09.835Z,18.93
2022-09-01T17:51:58.348Z,18.65
2022-09-01T17:54:44.042Z,18.55
2022-09-01T17:57:24.050Z,18.48
2022-09-01T18:00:01.822Z,18.45
2022-09-01T18:03:02.441Z,18.40
2022-09-01T18:05:39.856Z,18.35
2022-09-01T18:08:40.525Z,18.24
2022-09-01T18:11:15.837Z,18.20
2022-09-01T18:14:08.445Z,18.15
2022-09-01T18:16:43.969Z,17.90
2022-09-01T18:19:21.431Z,17.88
2022-09-01T18:21:53.581Z,17.90
2022-09-01T18:24:32.857Z,17.81
2022-09-01T18:27:01.606Z,17.76
2022-09-01T18:29:31.251Z,17.72
2022-09-01T18:31:58.012Z,17.62
2022-09-01T18:34:52.223Z,17.59
2022-09-01T18:37:42.883Z,17.48
2022-09-01T18:40:15.500Z,17.43
2022-09-01T18:43:06.829Z,17.33
2022-09-01T18:45:48.828Z,17.24
2022-09-01T18:48:29.726Z,17.15
2022-09-01T18:51:31.808Z,17.11
2022-09-01T18:54:19.632Z,17.09
2022-09-01T18:57:00.140Z,17.02
2022-09-01T18:59:54.677Z,17.04
2022-09-01T19:02:53.861Z,16.97
2022-09-01T19:05:55.949Z,16.83
2022-09-01T19:08:42.369Z,16.82
2022-09-01T19:11:27.814Z,16.78
2022-09-01T19:13:54.774Z,16.80
2022-09-01T19:16:42.706Z,16.68
2022-09-01T19:19:15.170Z,16.56
2022-09-01T19:21:44.494Z,16.48
2022-09-01T19:24:19.948Z,16.50
2022-09-01T19:26:50.763Z,16.54
2022-09-01T19:29:23.936Z,16.47
2022-09-01T19:31:59.731Z,16.40
2022-09-01T19:34:37.318Z,16.42
2022-09-01T19:37:05.213Z,16.46
2022-09-01T19:39:44.517Z,16.38
2022-09-01T19:42:32.324Z,16.40
2022-09-01T19:45:13.670Z,16.39
2022-09-01T19:47:51.481Z,16.36
2022-09-01T19:50:21.329Z,16.34
2022-09-01T19:52:56.903Z,16.35
2022-09-01T19:55:45.862Z,16.33
2022-09-01T19:58:24.569Z,16.38
2022-09-01T20:00:56.838Z,16.42
2022-09-01T20:03:33.669Z,16.35
2022-09-01T20:06:06.125Z,16.36
2022-09-01T20:08:52.661Z,16.22
2022-09-01T20:11:51.246Z,16.22
2022-09-01T20:14:18.986Z,16.22
2022-09-01T20:16:50.814Z,16.09
2022-09-01T20:19:39.389Z,16.11
2022-09-01T20:22:16.598Z,16.05
2022-09-01T20:24:43.472Z,15.98
2022-09-01T20:27:25.427Z,15.99
2022-09-01T20:30:12.162Z,15.96
2022-09-01T20:33:15.235Z,16.01
2022-09-01T20:36:04.353Z,16.05
2022-09-01T20:39:05.537Z,16.01
2022-09-01T20:41:59.698Z,16.02
2022-09-01T20:44:38.186Z,16.04
2022-09-01T20:47:06.303Z,16.01
2022-09-01T20:49:36.114Z,15.96
2022-09-01T20:52:14.020Z,15.95
2022-09-01T20:54:54.465Z,15.88
2022-09-01T20:57:46.047Z,15.79
2022-09-01T21:00:17.422Z,15.76
2022-09-01T21:03:06.009Z,15.72
2022-09-01T21:05:46.023Z,15.61
2022-09-01T21:08:31.232Z,15.57
2022-09-01T21:11:11.971Z,15.58
2022-09-01T21:13:47.661Z,15.52
2022-09-01T21:16:24.118Z,15.52
2022-09-01T21:19:06.645Z,15.52
2022-09-01T21:21:59.588Z,15.65
2022-09-01T21:24:26.420Z,15.62
2022-09-01T21:26:56.683Z,15.57
2022-09-01T21:30:05.429Z,15.57
2022-09-01T21:32:33.761Z,15.52
2022-09-01T21:35:01.545Z,15.42
2022-09-01T21:37:29.381Z,15.41
2022-09-01T21:39:57.136Z,15.32
2022-09-01T21:42:28.724Z,15.25
2022-09-01T21:44:56.553Z,15.25
2022-09-01T21:47:24.270Z,15.24
2022-09-01T21:49:51.096Z,15.22
2022-09-01T21:52:18.237Z,15.20
2022-09-01T21:54:45.044Z,15.27
2022-09-01T21:57:11.767Z,15.29
2022-09-01T21:59:38.653Z,15.35
2022-09-01T22:02:07.094Z,15.18
2022-09-01T22:04:38.718Z,15.09
2022-09-01T22:07:06.807Z,15.10
2022-09-01T22:09:33.606Z,15.06
2022-09-01T22:12:00.480Z,15.05
2022-09-01T22:14:27.948Z,14.97
2022-09-01T22:16:55.179Z,14.87
2022-09-01T22:19:22.115Z,14.88
2022-09-01T22:21:49.563Z,14.75
2022-09-01T22:24:19.385Z,14.73
2022-09-01T22:26:48.536Z,14.67
2022-09-01T22:29:17.457Z,14.62
2022-09-01T22:31:44.926Z,14.66
2022-09-01T22:34:11.750Z,14.59
2022-09-01T22:36:44.173Z,14.60
2022-09-01T22:39:12.623Z,14.57
2022-09-01T22:41:40.893Z,14.52
2022-09-01T22:44:08.157Z,14.48
2022-09-01T22:46:37.145Z,14.41
2022-09-01T22:49:05.077Z,14.40
2022-09-01T22:51:32.239Z,14.34
2022-09-01T22:53:59.243Z,14.31
2022-09-01T22:56:29.390Z,14.22
2022-09-01T22:59:01.335Z,14.11
2022-09-01T23:01:31.733Z,14.03
2022-09-01T23:04:01.709Z,13.99
2022-09-01T23:06:30.756Z,13.95
2022-09-01T23:09:00.524Z,13.92
2022-09-01T23:11:28.369Z,13.87
2022-09-01T23:13:55.678Z,13.87
2022-09-01T23:16:24.716Z,13.81
2022-09-01T23:18:52.685Z,13.81
2022-09-01T23:21:24.090Z,13.79
2022-09-01T23:23:58.482Z,13.79
2022-09-01T23:26:27.664Z,13.76
2022-09-01T23:28:54.990Z,13.70
2022-09-01T23:31:28.454Z,13.73
2022-09-01T23:33:55.840Z,13.71
2022-09-01T23:36:24.803Z,13.66
2022-09-01T23:38:52.695Z,13.58
2022-09-01T23:41:23.525Z,13.55
2022-09-01T23:43:52.971Z,13.62
2022-09-01T23:46:23.520Z,13.57
2022-09-01T23:48:50.721Z,13.55
2022-09-01T23:51:18.249Z,13.51
2022-09-01T23:53:47.154Z,13.51
2022-09-01T23:56:18.129Z,13.47
2022-09-01T23:58:45.371Z,13.46
